sensor_id;sensor_type;location;lat;lon;timestamp;P1;durP1;ratioP1;P2;durP2;ratioP2
39772;SDS011;25451;51.960;6.250;2023-09-19T00:01:17;6.10;;;1.30;;
39772;SDS011;25451;51.960;6.250;2023-09-19T00:03:45;9.45;;;1.50;;
39772;SDS011;25451;51.960;6.250;2023-09-19T00:06:10;7.37;;;1.43;;
39772;SDS011;25451;51.960;6.250;2023-09-19T00:08:35;8.03;;;1.40;;
39772;SDS011;25451;51.960;6.250;2023-09-19T00:11:01;6.47;;;1.47;;
39772;SDS011;25451;51.960;6.250;2023-09-19T00:13:28;7.57;;;1.30;;
39772;SDS011;25451;51.960;6.250;2023-09-19T00:15:53;6.27;;;1.40;;
39772;SDS011;25451;51.960;6.250;2023-09-19T00:18:20;9.30;;;1.60;;
39772;SDS011;25451;51.960;6.250;2023-09-19T00:20:46;8.07;;;1.70;;
39772;SDS011;25451;51.960;6.250;2023-09-19T00:23:16;8.85;;;1.63;;
39772;SDS011;25451;51.960;6.250;2023-09-19T00:25:42;8.57;;;1.80;;
39772;SDS011;25451;51.960;6.250;2023-09-19T00:28:07;8.15;;;1.45;;
39772;SDS011;25451;51.960;6.250;2023-09-19T00:30:36;5.73;;;1.33;;
39772;SDS011;25451;51.960;6.250;2023-09-19T00:33:03;7.45;;;1.42;;
39772;SDS011;25451;51.960;6.250;2023-09-19T00:35:31;6.90;;;1.67;;
39772;SDS011;25451;51.960;6.250;2023-09-19T00:37:56;5.43;;;1.43;;
39772;SDS011;25451;51.960;6.250;2023-09-19T00:40:21;9.50;;;1.70;;
39772;SDS011;25451;51.960;6.250;2023-09-19T00:42:47;3.87;;;1.40;;
39772;SDS011;25451;51.960;6.250;2023-09-19T00:45:15;8.40;;;1.30;;
39772;SDS011;25451;51.960;6.250;2023-09-19T00:47:49;6.07;;;1.33;;
39772;SDS011;25451;51.960;6.250;2023-09-19T00:50:16;6.13;;;1.40;;
39772;SDS011;25451;51.960;6.250;2023-09-19T00:52:44;6.38;;;1.48;;
39772;SDS011;25451;51.960;6.250;2023-09-19T00:55:12;7.45;;;1.48;;
39772;SDS011;25451;51.960;6.250;2023-09-19T00:57:39;8.35;;;1.40;;
39772;SDS011;25451;51.960;6.250;2023-09-19T01:00:06;12.35;;;1.52;;
39772;SDS011;25451;51.960;6.250;2023-09-19T01:02:36;5.13;;;1.23;;
39772;SDS011;25451;51.960;6.250;2023-09-19T01:05:02;5.93;;;1.20;;
39772;SDS011;25451;51.960;6.250;2023-09-19T01:07:29;9.68;;;1.73;;
39772;SDS011;25451;51.960;6.250;2023-09-19T01:09:56;4.53;;;1.10;;
39772;SDS011;25451;51.960;6.250;2023-09-19T01:12:27;5.20;;;1.30;;
39772;SDS011;25451;51.960;6.250;2023-09-19T01:15:00;11.50;;;1.40;;
39772;SDS011;25451;51.960;6.250;2023-09-19T01:17:38;6.65;;;1.40;;
39772;SDS011;25451;51.960;6.250;2023-09-19T01:22:53;5.75;;;1.80;;
39772;SDS011;25451;51.960;6.250;2023-09-19T01:28:29;6.90;;;1.70;;
39772;SDS011;25451;51.960;6.250;2023-09-19T01:31:01;4.75;;;1.50;;
39772;SDS011;25451;51.960;6.250;2023-09-19T01:33:28;5.15;;;1.60;;
39772;SDS011;25451;51.960;6.250;2023-09-19T01:35:59;8.18;;;2.03;;
39772;SDS011;25451;51.960;6.250;2023-09-19T01:38:24;7.07;;;1.60;;
39772;SDS011;25451;51.960;6.250;2023-09-19T01:41:01;4.55;;;1.60;;
39772;SDS011;25451;51.960;6.250;2023-09-19T01:43:36;9.13;;;1.48;;
39772;SDS011;25451;51.960;6.250;2023-09-19T01:46:11;3.90;;;1.30;;
39772;SDS011;25451;51.960;6.250;2023-09-19T01:52:09;6.80;;;1.65;;
39772;SDS011;25451;51.960;6.250;2023-09-19T01:54:37;9.50;;;1.70;;
39772;SDS011;25451;51.960;6.250;2023-09-19T01:57:14;10.27;;;1.70;;
39772;SDS011;25451;51.960;6.250;2023-09-19T01:59:48;6.30;;;1.50;;
39772;SDS011;25451;51.960;6.250;2023-09-19T02:02:19;5.18;;;1.25;;
39772;SDS011;25451;51.960;6.250;2023-09-19T02:04:47;8.90;;;1.90;;
39772;SDS011;25451;51.960;6.250;2023-09-19T02:07:13;6.00;;;1.40;;
39772;SDS011;25451;51.960;6.250;2023-09-19T02:09:40;6.15;;;1.30;;
39772;SDS011;25451;51.960;6.250;2023-09-19T02:12:08;6.07;;;1.40;;
39772;SDS011;25451;51.960;6.250;2023-09-19T02:14:34;5.88;;;1.63;;
39772;SDS011;25451;51.960;6.250;2023-09-19T02:17:01;8.75;;;1.50;;
39772;SDS011;25451;51.960;6.250;2023-09-19T02:19:27;8.00;;;1.60;;
39772;SDS011;25451;51.960;6.250;2023-09-19T02:21:54;10.93;;;1.35;;
39772;SDS011;25451;51.960;6.250;2023-09-19T02:24:20;12.13;;;1.97;;
39772;SDS011;25451;51.960;6.250;2023-09-19T02:26:45;6.93;;;1.80;;
39772;SDS011;25451;51.960;6.250;2023-09-19T02:29:12;5.85;;;1.25;;
39772;SDS011;25451;51.960;6.250;2023-09-19T02:31:38;5.75;;;1.20;;
39772;SDS011;25451;51.960;6.250;2023-09-19T02:34:03;7.83;;;1.40;;
39772;SDS011;25451;51.960;6.250;2023-09-19T02:36:31;8.50;;;1.35;;
39772;SDS011;25451;51.960;6.250;2023-09-19T02:38:57;9.35;;;1.50;;
39772;SDS011;25451;51.960;6.250;2023-09-19T02:41:22;11.25;;;1.77;;
39772;SDS011;25451;51.960;6.250;2023-09-19T02:43:47;3.57;;;1.03;;
39772;SDS011;25451;51.960;6.250;2023-09-19T02:46:13;5.23;;;1.10;;
39772;SDS011;25451;51.960;6.250;2023-09-19T02:48:38;9.03;;;1.47;;
39772;SDS011;25451;51.960;6.250;2023-09-19T02:51:04;9.53;;;1.40;;
39772;SDS011;25451;51.960;6.250;2023-09-19T02:53:30;6.95;;;1.30;;
39772;SDS011;25451;51.960;6.250;2023-09-19T02:55:56;9.25;;;1.77;;
39772;SDS011;25451;51.960;6.250;2023-09-19T02:58:22;5.77;;;1.20;;
39772;SDS011;25451;51.960;6.250;2023-09-19T03:00:48;9.18;;;1.40;;
39772;SDS011;25451;51.960;6.250;2023-09-19T03:03:14;8.30;;;1.30;;
39772;SDS011;25451;51.960;6.250;2023-09-19T03:05:41;8.93;;;1.20;;
39772;SDS011;25451;51.960;6.250;2023-09-19T03:08:11;7.53;;;1.30;;
39772;SDS011;25451;51.960;6.250;2023-09-19T03:10:40;5.85;;;1.27;;
39772;SDS011;25451;51.960;6.250;2023-09-19T03:13:05;5.57;;;1.40;;
39772;SDS011;25451;51.960;6.250;2023-09-19T03:15:34;8.68;;;1.40;;
39772;SDS011;25451;51.960;6.250;2023-09-19T03:18:02;8.18;;;1.40;;
39772;SDS011;25451;51.960;6.250;2023-09-19T03:20:28;5.65;;;1.40;;
39772;SDS011;25451;51.960;6.250;2023-09-19T03:22:53;7.47;;;1.30;;
39772;SDS011;25451;51.960;6.250;2023-09-19T03:25:18;6.17;;;1.30;;
39772;SDS011;25451;51.960;6.250;2023-09-19T03:27:44;8.37;;;1.80;;
39772;SDS011;25451;51.960;6.250;2023-09-19T03:30:09;6.60;;;1.20;;
39772;SDS011;25451;51.960;6.250;2023-09-19T03:32:43;6.25;;;1.30;;
39772;SDS011;25451;51.960;6.250;2023-09-19T03:35:10;7.80;;;1.40;;
39772;SDS011;25451;51.960;6.250;2023-09-19T03:37:36;7.38;;;1.40;;
39772;SDS011;25451;51.960;6.250;2023-09-19T03:40:01;7.37;;;1.43;;
39772;SDS011;25451;51.960;6.250;2023-09-19T03:42:30;4.75;;;1.20;;
39772;SDS011;25451;51.960;6.250;2023-09-19T03:44:56;6.63;;;1.20;;
39772;SDS011;25451;51.960;6.250;2023-09-19T03:47:21;8.05;;;1.30;;
39772;SDS011;25451;51.960;6.250;2023-09-19T03:49:47;8.93;;;1.47;;
39772;SDS011;25451;51.960;6.250;2023-09-19T03:52:12;6.30;;;1.37;;
39772;SDS011;25451;51.960;6.250;2023-09-19T03:54:37;5.53;;;1.00;;
39772;SDS011;25451;51.960;6.250;2023-09-19T03:57:02;6.20;;;1.63;;
39772;SDS011;25451;51.960;6.250;2023-09-19T03:59:29;8.13;;;1.33;;
39772;SDS011;25451;51.960;6.250;2023-09-19T04:01:55;4.20;;;1.10;;
39772;SDS011;25451;51.960;6.250;2023-09-19T04:04:22;9.80;;;1.40;;
39772;SDS011;25451;51.960;6.250;2023-09-19T04:06:49;4.40;;;1.23;;
39772;SDS011;25451;51.960;6.250;2023-09-19T04:09:15;9.53;;;1.40;;
39772;SDS011;25451;51.960;6.250;2023-09-19T04:11:40;4.97;;;1.20;;
39772;SDS011;25451;51.960;6.250;2023-09-19T04:14:05;7.83;;;1.70;;
39772;SDS011;25451;51.960;6.250;2023-09-19T04:16:31;7.10;;;1.40;;
39772;SDS011;25451;51.960;6.250;2023-09-19T04:18:56;5.63;;;1.40;;
39772;SDS011;25451;51.960;6.250;2023-09-19T04:21:21;5.40;;;1.45;;
39772;SDS011;25451;51.960;6.250;2023-09-19T04:23:47;9.40;;;1.30;;
39772;SDS011;25451;51.960;6.250;2023-09-19T04:26:12;5.67;;;0.90;;
39772;SDS011;25451;51.960;6.250;2023-09-19T04:28:37;5.97;;;1.57;;
39772;SDS011;25451;51.960;6.250;2023-09-19T04:31:03;7.45;;;1.30;;
39772;SDS011;25451;51.960;6.250;2023-09-19T04:33:29;8.93;;;1.50;;
39772;SDS011;25451;51.960;6.250;2023-09-19T04:35:54;6.37;;;1.20;;
39772;SDS011;25451;51.960;6.250;2023-09-19T04:38:20;5.00;;;1.20;;
39772;SDS011;25451;51.960;6.250;2023-09-19T04:40:46;9.30;;;1.17;;
39772;SDS011;25451;51.960;6.250;2023-09-19T04:43:12;5.65;;;1.27;;
39772;SDS011;25451;51.960;6.250;2023-09-19T04:45:38;7.43;;;1.20;;
39772;SDS011;25451;51.960;6.250;2023-09-19T04:48:05;9.23;;;1.50;;
39772;SDS011;25451;51.960;6.250;2023-09-19T04:50:33;6.13;;;1.20;;
39772;SDS011;25451;51.960;6.250;2023-09-19T04:52:59;7.00;;;1.53;;
39772;SDS011;25451;51.960;6.250;2023-09-19T04:55:25;9.57;;;1.40;;
39772;SDS011;25451;51.960;6.250;2023-09-19T04:57:51;10.33;;;3.13;;
39772;SDS011;25451;51.960;6.250;2023-09-19T05:00:19;5.65;;;1.20;;
39772;SDS011;25451;51.960;6.250;2023-09-19T05:02:51;4.78;;;1.00;;
39772;SDS011;25451;51.960;6.250;2023-09-19T05:05:17;4.90;;;1.00;;
39772;SDS011;25451;51.960;6.250;2023-09-19T05:07:44;7.10;;;1.27;;
39772;SDS011;25451;51.960;6.250;2023-09-19T05:10:10;5.70;;;1.30;;
39772;SDS011;25451;51.960;6.250;2023-09-19T05:12:37;5.40;;;0.98;;
39772;SDS011;25451;51.960;6.250;2023-09-19T05:15:03;6.90;;;1.17;;
39772;SDS011;25451;51.960;6.250;2023-09-19T05:17:29;6.22;;;1.20;;
39772;SDS011;25451;51.960;6.250;2023-09-19T05:19:55;9.77;;;1.20;;
39772;SDS011;25451;51.960;6.250;2023-09-19T05:22:20;6.23;;;1.33;;
39772;SDS011;25451;51.960;6.250;2023-09-19T05:24:46;4.75;;;0.93;;
39772;SDS011;25451;51.960;6.250;2023-09-19T05:27:14;8.77;;;1.30;;
39772;SDS011;25451;51.960;6.250;2023-09-19T05:29:42;5.85;;;1.25;;
39772;SDS011;25451;51.960;6.250;2023-09-19T05:32:11;3.97;;;1.10;;
39772;SDS011;25451;51.960;6.250;2023-09-19T05:34:37;9.45;;;1.67;;
39772;SDS011;25451;51.960;6.250;2023-09-19T05:37:03;7.75;;;1.20;;
39772;SDS011;25451;51.960;6.250;2023-09-19T05:39:32;4.17;;;1.10;;
39772;SDS011;25451;51.960;6.250;2023-09-19T05:41:57;5.03;;;1.10;;
39772;SDS011;25451;51.960;6.250;2023-09-19T05:44:23;5.53;;;1.07;;
39772;SDS011;25451;51.960;6.250;2023-09-19T05:46:48;6.63;;;1.50;;
39772;SDS011;25451;51.960;6.250;2023-09-19T05:49:14;8.13;;;1.15;;
39772;SDS011;25451;51.960;6.250;2023-09-19T05:51:40;4.80;;;0.98;;
39772;SDS011;25451;51.960;6.250;2023-09-19T05:54:06;10.27;;;1.15;;
39772;SDS011;25451;51.960;6.250;2023-09-19T05:56:31;5.07;;;1.10;;
39772;SDS011;25451;51.960;6.250;2023-09-19T05:58:56;3.83;;;1.13;;
39772;SDS011;25451;51.960;6.250;2023-09-19T06:01:22;5.90;;;1.20;;
39772;SDS011;25451;51.960;6.250;2023-09-19T06:03:47;6.30;;;1.50;;
39772;SDS011;25451;51.960;6.250;2023-09-19T06:06:13;9.35;;;1.50;;
39772;SDS011;25451;51.960;6.250;2023-09-19T06:08:39;6.38;;;1.17;;
39772;SDS011;25451;51.960;6.250;2023-09-19T06:11:04;6.57;;;1.23;;
39772;SDS011;25451;51.960;6.250;2023-09-19T06:13:32;5.10;;;1.17;;
39772;SDS011;25451;51.960;6.250;2023-09-19T06:15:58;8.15;;;1.23;;
39772;SDS011;25451;51.960;6.250;2023-09-19T06:18:25;7.00;;;1.70;;
39772;SDS011;25451;51.960;6.250;2023-09-19T06:20:51;4.70;;;1.00;;
39772;SDS011;25451;51.960;6.250;2023-09-19T06:23:17;6.88;;;1.40;;
39772;SDS011;25451;51.960;6.250;2023-09-19T06:25:45;6.63;;;1.30;;
39772;SDS011;25451;51.960;6.250;2023-09-19T06:28:10;4.72;;;1.20;;
39772;SDS011;25451;51.960;6.250;2023-09-19T06:30:39;5.05;;;1.13;;
39772;SDS011;25451;51.960;6.250;2023-09-19T06:33:05;6.20;;;1.50;;
39772;SDS011;25451;51.960;6.250;2023-09-19T06:35:32;5.03;;;1.20;;
39772;SDS011;25451;51.960;6.250;2023-09-19T06:37:58;7.95;;;1.33;;
39772;SDS011;25451;51.960;6.250;2023-09-19T06:40:23;4.53;;;1.10;;
39772;SDS011;25451;51.960;6.250;2023-09-19T06:42:52;7.72;;;1.23;;
39772;SDS011;25451;51.960;6.250;2023-09-19T06:45:19;10.18;;;1.45;;
39772;SDS011;25451;51.960;6.250;2023-09-19T06:47:46;6.90;;;1.17;;
39772;SDS011;25451;51.960;6.250;2023-09-19T06:50:20;7.60;;;1.40;;
39772;SDS011;25451;51.960;6.250;2023-09-19T06:52:48;11.52;;;1.20;;
39772;SDS011;25451;51.960;6.250;2023-09-19T06:55:18;10.32;;;1.75;;
39772;SDS011;25451;51.960;6.250;2023-09-19T06:57:47;11.48;;;1.75;;
39772;SDS011;25451;51.960;6.250;2023-09-19T07:00:14;10.05;;;1.63;;
39772;SDS011;25451;51.960;6.250;2023-09-19T07:03:00;5.32;;;1.42;;
39772;SDS011;25451;51.960;6.250;2023-09-19T07:05:28;8.27;;;1.50;;
39772;SDS011;25451;51.960;6.250;2023-09-19T07:07:57;8.45;;;1.40;;
39772;SDS011;25451;51.960;6.250;2023-09-19T07:10:24;7.03;;;1.38;;
39772;SDS011;25451;51.960;6.250;2023-09-19T07:12:57;8.05;;;1.30;;
39772;SDS011;25451;51.960;6.250;2023-09-19T07:15:26;6.82;;;1.40;;
39772;SDS011;25451;51.960;6.250;2023-09-19T07:17:52;5.78;;;1.40;;
39772;SDS011;25451;51.960;6.250;2023-09-19T07:20:19;6.13;;;1.30;;
39772;SDS011;25451;51.960;6.250;2023-09-19T07:22:45;4.00;;;1.13;;
39772;SDS011;25451;51.960;6.250;2023-09-19T07:25:10;6.65;;;1.42;;
39772;SDS011;25451;51.960;6.250;2023-09-19T07:27:36;8.48;;;1.40;;
39772;SDS011;25451;51.960;6.250;2023-09-19T07:30:02;6.70;;;1.10;;
39772;SDS011;25451;51.960;6.250;2023-09-19T07:32:28;6.35;;;1.48;;
39772;SDS011;25451;51.960;6.250;2023-09-19T07:34:53;10.20;;;1.17;;
39772;SDS011;25451;51.960;6.250;2023-09-19T07:37:20;5.78;;;1.40;;
39772;SDS011;25451;51.960;6.250;2023-09-19T07:39:46;5.15;;;1.10;;
39772;SDS011;25451;51.960;6.250;2023-09-19T07:42:11;9.70;;;1.40;;
39772;SDS011;25451;51.960;6.250;2023-09-19T07:44:42;8.38;;;1.70;;
39772;SDS011;25451;51.960;6.250;2023-09-19T07:47:08;7.50;;;1.60;;
39772;SDS011;25451;51.960;6.250;2023-09-19T07:49:34;8.85;;;1.45;;
39772;SDS011;25451;51.960;6.250;2023-09-19T07:52:00;11.07;;;1.50;;
39772;SDS011;25451;51.960;6.250;2023-09-19T07:54:25;6.03;;;1.40;;
39772;SDS011;25451;51.960;6.250;2023-09-19T07:56:52;6.47;;;1.25;;
39772;SDS011;25451;51.960;6.250;2023-09-19T07:59:18;10.63;;;1.27;;
39772;SDS011;25451;51.960;6.250;2023-09-19T08:01:44;8.03;;;1.00;;
39772;SDS011;25451;51.960;6.250;2023-09-19T08:04:09;9.23;;;1.27;;
39772;SDS011;25451;51.960;6.250;2023-09-19T08:06:35;8.23;;;1.58;;
39772;SDS011;25451;51.960;6.250;2023-09-19T08:09:00;6.47;;;1.30;;
39772;SDS011;25451;51.960;6.250;2023-09-19T08:11:32;11.00;;;1.83;;
39772;SDS011;25451;51.960;6.250;2023-09-19T08:13:58;8.05;;;1.50;;
39772;SDS011;25451;51.960;6.250;2023-09-19T08:16:24;8.97;;;1.70;;
39772;SDS011;25451;51.960;6.250;2023-09-19T08:18:50;8.85;;;1.20;;
39772;SDS011;25451;51.960;6.250;2023-09-19T08:21:18;8.02;;;1.33;;
39772;SDS011;25451;51.960;6.250;2023-09-19T08:23:44;10.88;;;1.52;;
39772;SDS011;25451;51.960;6.250;2023-09-19T08:26:09;6.63;;;1.30;;
39772;SDS011;25451;51.960;6.250;2023-09-19T08:28:35;9.93;;;1.43;;
39772;SDS011;25451;51.960;6.250;2023-09-19T08:31:04;9.30;;;1.73;;
39772;SDS011;25451;51.960;6.250;2023-09-19T08:33:33;10.00;;;1.33;;
39772;SDS011;25451;51.960;6.250;2023-09-19T08:36:00;12.07;;;1.48;;
39772;SDS011;25451;51.960;6.250;2023-09-19T08:38:31;8.18;;;1.38;;
39772;SDS011;25451;51.960;6.250;2023-09-19T08:40:58;10.10;;;1.25;;
39772;SDS011;25451;51.960;6.250;2023-09-19T08:43:30;8.55;;;1.50;;
39772;SDS011;25451;51.960;6.250;2023-09-19T08:46:20;7.90;;;1.20;;
39772;SDS011;25451;51.960;6.250;2023-09-19T08:48:46;9.40;;;1.25;;
39772;SDS011;25451;51.960;6.250;2023-09-19T08:52:05;8.27;;;1.40;;
39772;SDS011;25451;51.960;6.250;2023-09-19T08:54:12;9.50;;;1.85;;
39772;SDS011;25451;51.960;6.250;2023-09-19T08:56:43;7.68;;;1.20;;
39772;SDS011;25451;51.960;6.250;2023-09-19T08:59:12;8.63;;;1.33;;
39772;SDS011;25451;51.960;6.250;2023-09-19T09:01:38;9.85;;;1.77;;
39772;SDS011;25451;51.960;6.250;2023-09-19T09:04:07;12.30;;;1.55;;
39772;SDS011;25451;51.960;6.250;2023-09-19T09:06:38;6.22;;;1.20;;
39772;SDS011;25451;51.960;6.250;2023-09-19T09:09:08;7.13;;;1.35;;
39772;SDS011;25451;51.960;6.250;2023-09-19T09:11:34;9.70;;;1.60;;
39772;SDS011;25451;51.960;6.250;2023-09-19T09:14:02;13.85;;;1.77;;
39772;SDS011;25451;51.960;6.250;2023-09-19T09:16:27;10.90;;;1.67;;
39772;SDS011;25451;51.960;6.250;2023-09-19T09:18:58;10.30;;;1.50;;
39772;SDS011;25451;51.960;6.250;2023-09-19T09:21:26;11.23;;;1.58;;
39772;SDS011;25451;51.960;6.250;2023-09-19T09:23:51;7.55;;;1.58;;
39772;SDS011;25451;51.960;6.250;2023-09-19T09:26:33;11.03;;;2.00;;
39772;SDS011;25451;51.960;6.250;2023-09-19T09:29:07;8.23;;;1.60;;
39772;SDS011;25451;51.960;6.250;2023-09-19T09:31:33;9.50;;;1.70;;
39772;SDS011;25451;51.960;6.250;2023-09-19T09:33:58;9.82;;;1.70;;
39772;SDS011;25451;51.960;6.250;2023-09-19T09:36:37;7.27;;;1.33;;
39772;SDS011;25451;51.960;6.250;2023-09-19T09:39:04;11.57;;;1.77;;
39772;SDS011;25451;51.960;6.250;2023-09-19T09:41:41;7.95;;;1.13;;
39772;SDS011;25451;51.960;6.250;2023-09-19T09:44:14;6.60;;;1.48;;
39772;SDS011;25451;51.960;6.250;2023-09-19T09:46:46;8.38;;;1.50;;
39772;SDS011;25451;51.960;6.250;2023-09-19T09:49:25;7.57;;;1.20;;
39772;SDS011;25451;51.960;6.250;2023-09-19T09:52:04;10.85;;;1.40;;
39772;SDS011;25451;51.960;6.250;2023-09-19T09:54:57;10.73;;;1.65;;
39772;SDS011;25451;51.960;6.250;2023-09-19T09:57:24;10.13;;;1.50;;
39772;SDS011;25451;51.960;6.250;2023-09-19T10:02:18;7.38;;;1.27;;
39772;SDS011;25451;51.960;6.250;2023-09-19T10:04:54;7.93;;;1.42;;
39772;SDS011;25451;51.960;6.250;2023-09-19T10:07:38;6.38;;;1.25;;
39772;SDS011;25451;51.960;6.250;2023-09-19T10:10:07;7.57;;;1.23;;
39772;SDS011;25451;51.960;6.250;2023-09-19T10:12:49;8.07;;;1.40;;
39772;SDS011;25451;51.960;6.250;2023-09-19T10:15:21;11.27;;;1.48;;
39772;SDS011;25451;51.960;6.250;2023-09-19T10:17:51;8.35;;;1.80;;
39772;SDS011;25451;51.960;6.250;2023-09-19T10:20:23;7.38;;;1.52;;
39772;SDS011;25451;51.960;6.250;2023-09-19T10:22:55;7.68;;;1.40;;
39772;SDS011;25451;51.960;6.250;2023-09-19T10:25:29;8.32;;;1.42;;
39772;SDS011;25451;51.960;6.250;2023-09-19T10:27:56;10.45;;;1.50;;
39772;SDS011;25451;51.960;6.250;2023-09-19T10:30:27;10.10;;;1.50;;
39772;SDS011;25451;51.960;6.250;2023-09-19T10:33:02;10.30;;;1.35;;
39772;SDS011;25451;51.960;6.250;2023-09-19T10:35:28;5.10;;;1.40;;
39772;SDS011;25451;51.960;6.250;2023-09-19T10:37:56;9.48;;;1.50;;
39772;SDS011;25451;51.960;6.250;2023-09-19T10:40:24;8.05;;;1.50;;
39772;SDS011;25451;51.960;6.250;2023-09-19T10:42:57;8.82;;;1.48;;
39772;SDS011;25451;51.960;6.250;2023-09-19T10:45:26;8.03;;;1.50;;
39772;SDS011;25451;51.960;6.250;2023-09-19T10:47:56;6.22;;;1.20;;
39772;SDS011;25451;51.960;6.250;2023-09-19T10:50:22;6.03;;;1.20;;
39772;SDS011;25451;51.960;6.250;2023-09-19T10:52:48;5.15;;;1.30;;
39772;SDS011;25451;51.960;6.250;2023-09-19T10:55:17;7.70;;;1.33;;
39772;SDS011;25451;51.960;6.250;2023-09-19T10:57:45;9.18;;;1.60;;
39772;SDS011;25451;51.960;6.250;2023-09-19T11:00:11;7.00;;;1.23;;
39772;SDS011;25451;51.960;6.250;2023-09-19T11:05:35;8.20;;;1.40;;
39772;SDS011;25451;51.960;6.250;2023-09-19T11:08:05;12.88;;;1.58;;
39772;SDS011;25451;51.960;6.250;2023-09-19T11:10:45;6.50;;;1.20;;
39772;SDS011;25451;51.960;6.250;2023-09-19T11:13:33;6.65;;;1.10;;
39772;SDS011;25451;51.960;6.250;2023-09-19T11:16:03;5.68;;;1.30;;
39772;SDS011;25451;51.960;6.250;2023-09-19T11:26:47;8.65;;;1.20;;
39772;SDS011;25451;51.960;6.250;2023-09-19T11:29:29;7.18;;;1.52;;
39772;SDS011;25451;51.960;6.250;2023-09-19T11:31:57;6.90;;;1.10;;
39772;SDS011;25451;51.960;6.250;2023-09-19T11:39:38;6.05;;;1.10;;
39772;SDS011;25451;51.960;6.250;2023-09-19T11:48:12;9.23;;;1.30;;
39772;SDS011;25451;51.960;6.250;2023-09-19T11:50:41;6.07;;;1.20;;
39772;SDS011;25451;51.960;6.250;2023-09-19T11:53:09;5.40;;;1.05;;
39772;SDS011;25451;51.960;6.250;2023-09-19T11:55:37;8.98;;;1.45;;
39772;SDS011;25451;51.960;6.250;2023-09-19T11:58:05;9.63;;;1.40;;
39772;SDS011;25451;51.960;6.250;2023-09-19T12:00:33;3.42;;;1.10;;
39772;SDS011;25451;51.960;6.250;2023-09-19T12:03:00;6.82;;;1.35;;
39772;SDS011;25451;51.960;6.250;2023-09-19T12:05:34;5.68;;;1.25;;
39772;SDS011;25451;51.960;6.250;2023-09-19T12:07:59;7.73;;;1.13;;
39772;SDS011;25451;51.960;6.250;2023-09-19T12:10:25;5.32;;;1.10;;
39772;SDS011;25451;51.960;6.250;2023-09-19T12:12:52;8.77;;;1.30;;
39772;SDS011;25451;51.960;6.250;2023-09-19T12:15:24;8.25;;;1.67;;
39772;SDS011;25451;51.960;6.250;2023-09-19T12:17:59;6.63;;;1.23;;
39772;SDS011;25451;51.960;6.250;2023-09-19T12:20:26;6.45;;;1.05;;
39772;SDS011;25451;51.960;6.250;2023-09-19T12:23:14;6.55;;;1.20;;
39772;SDS011;25451;51.960;6.250;2023-09-19T12:25:43;6.32;;;1.15;;
39772;SDS011;25451;51.960;6.250;2023-09-19T12:28:13;11.23;;;1.60;;
39772;SDS011;25451;51.960;6.250;2023-09-19T12:30:39;4.80;;;1.23;;
39772;SDS011;25451;51.960;6.250;2023-09-19T12:33:15;5.93;;;1.15;;
39772;SDS011;25451;51.960;6.250;2023-09-19T12:35:45;19.27;;;1.90;;
39772;SDS011;25451;51.960;6.250;2023-09-19T12:38:11;7.07;;;1.20;;
39772;SDS011;25451;51.960;6.250;2023-09-19T12:40:48;9.07;;;1.20;;
39772;SDS011;25451;51.960;6.250;2023-09-19T12:43:16;7.65;;;1.20;;
39772;SDS011;25451;51.960;6.250;2023-09-19T12:45:43;8.63;;;1.10;;
39772;SDS011;25451;51.960;6.250;2023-09-19T12:48:22;6.38;;;1.17;;
39772;SDS011;25451;51.960;6.250;2023-09-19T12:51:12;9.18;;;1.10;;
39772;SDS011;25451;51.960;6.250;2023-09-19T12:56:11;4.38;;;0.90;;
39772;SDS011;25451;51.960;6.250;2023-09-19T13:01:21;4.03;;;0.88;;
39772;SDS011;25451;51.960;6.250;2023-09-19T13:06:46;5.53;;;0.80;;
39772;SDS011;25451;51.960;6.250;2023-09-19T13:09:16;4.13;;;0.93;;
39772;SDS011;25451;51.960;6.250;2023-09-19T13:11:43;6.20;;;0.93;;
39772;SDS011;25451;51.960;6.250;2023-09-19T13:19:34;5.97;;;0.77;;
39772;SDS011;25451;51.960;6.250;2023-09-19T13:22:04;4.57;;;0.73;;
39772;SDS011;25451;51.960;6.250;2023-09-19T13:24:30;3.50;;;0.68;;
39772;SDS011;25451;51.960;6.250;2023-09-19T13:27:00;4.38;;;1.00;;
39772;SDS011;25451;51.960;6.250;2023-09-19T13:29:28;2.88;;;0.60;;
39772;SDS011;25451;51.960;6.250;2023-09-19T13:31:54;5.87;;;0.90;;
39772;SDS011;25451;51.960;6.250;2023-09-19T13:34:19;4.30;;;0.77;;
39772;SDS011;25451;51.960;6.250;2023-09-19T13:36:45;3.63;;;0.70;;
39772;SDS011;25451;51.960;6.250;2023-09-19T13:39:17;3.15;;;0.75;;
39772;SDS011;25451;51.960;6.250;2023-09-19T13:41:48;3.05;;;0.70;;
39772;SDS011;25451;51.960;6.250;2023-09-19T13:44:14;4.93;;;0.80;;
39772;SDS011;25451;51.960;6.250;2023-09-19T13:46:41;4.45;;;0.85;;
39772;SDS011;25451;51.960;6.250;2023-09-19T13:49:10;3.65;;;0.80;;
39772;SDS011;25451;51.960;6.250;2023-09-19T13:51:36;3.17;;;0.70;;
39772;SDS011;25451;51.960;6.250;2023-09-19T13:54:02;5.27;;;0.80;;
39772;SDS011;25451;51.960;6.250;2023-09-19T13:56:27;3.53;;;0.70;;
39772;SDS011;25451;51.960;6.250;2023-09-19T13:58:53;2.40;;;0.60;;
39772;SDS011;25451;51.960;6.250;2023-09-19T14:01:19;3.25;;;0.68;;
39772;SDS011;25451;51.960;6.250;2023-09-19T14:03:45;5.05;;;0.70;;
39772;SDS011;25451;51.960;6.250;2023-09-19T14:06:11;2.40;;;0.70;;
39772;SDS011;25451;51.960;6.250;2023-09-19T14:08:37;4.80;;;0.80;;
39772;SDS011;25451;51.960;6.250;2023-09-19T14:11:06;4.57;;;0.80;;
39772;SDS011;25451;51.960;6.250;2023-09-19T14:13:33;3.42;;;0.90;;
39772;SDS011;25451;51.960;6.250;2023-09-19T14:16:02;2.27;;;0.50;;
39772;SDS011;25451;51.960;6.250;2023-09-19T14:18:32;3.00;;;0.70;;
39772;SDS011;25451;51.960;6.250;2023-09-19T14:20:57;4.83;;;1.00;;
39772;SDS011;25451;51.960;6.250;2023-09-19T14:23:23;2.30;;;0.60;;
39772;SDS011;25451;51.960;6.250;2023-09-19T14:25:51;5.57;;;0.90;;
39772;SDS011;25451;51.960;6.250;2023-09-19T14:28:18;4.30;;;0.70;;
39772;SDS011;25451;51.960;6.250;2023-09-19T14:30:44;3.23;;;0.67;;
39772;SDS011;25451;51.960;6.250;2023-09-19T14:33:11;3.03;;;0.70;;
39772;SDS011;25451;51.960;6.250;2023-09-19T14:35:37;3.58;;;0.80;;
39772;SDS011;25451;51.960;6.250;2023-09-19T14:38:03;2.40;;;0.63;;
39772;SDS011;25451;51.960;6.250;2023-09-19T14:40:29;3.22;;;0.70;;
39772;SDS011;25451;51.960;6.250;2023-09-19T14:42:54;2.80;;;0.70;;
39772;SDS011;25451;51.960;6.250;2023-09-19T14:45:20;4.88;;;1.02;;
39772;SDS011;25451;51.960;6.250;2023-09-19T14:47:46;3.43;;;0.77;;
39772;SDS011;25451;51.960;6.250;2023-09-19T14:50:11;2.67;;;0.60;;
39772;SDS011;25451;51.960;6.250;2023-09-19T14:52:40;3.67;;;0.82;;
39772;SDS011;25451;51.960;6.250;2023-09-19T14:55:06;3.30;;;0.73;;
39772;SDS011;25451;51.960;6.250;2023-09-19T14:57:41;2.80;;;0.80;;
39772;SDS011;25451;51.960;6.250;2023-09-19T15:00:09;3.67;;;0.65;;
39772;SDS011;25451;51.960;6.250;2023-09-19T15:02:37;4.65;;;0.80;;
39772;SDS011;25451;51.960;6.250;2023-09-19T15:05:05;2.25;;;0.88;;
39772;SDS011;25451;51.960;6.250;2023-09-19T15:07:34;4.03;;;0.70;;
39772;SDS011;25451;51.960;6.250;2023-09-19T15:10:02;4.00;;;0.80;;
39772;SDS011;25451;51.960;6.250;2023-09-19T15:12:35;3.17;;;0.70;;
39772;SDS011;25451;51.960;6.250;2023-09-19T15:15:02;2.95;;;0.77;;
39772;SDS011;25451;51.960;6.250;2023-09-19T15:17:30;3.78;;;0.75;;
39772;SDS011;25451;51.960;6.250;2023-09-19T15:19:56;3.97;;;0.87;;
39772;SDS011;25451;51.960;6.250;2023-09-19T15:22:21;4.13;;;0.80;;
39772;SDS011;25451;51.960;6.250;2023-09-19T15:24:47;2.00;;;0.70;;
39772;SDS011;25451;51.960;6.250;2023-09-19T15:27:13;2.63;;;0.65;;
39772;SDS011;25451;51.960;6.250;2023-09-19T15:29:38;1.77;;;0.60;;
39772;SDS011;25451;51.960;6.250;2023-09-19T15:32:04;4.63;;;0.60;;
39772;SDS011;25451;51.960;6.250;2023-09-19T15:34:30;3.40;;;0.70;;
39772;SDS011;25451;51.960;6.250;2023-09-19T15:36:59;4.97;;;0.80;;
39772;SDS011;25451;51.960;6.250;2023-09-19T15:39:24;4.90;;;0.75;;